createdAt,value
2018-12-07T00:00:44.103Z,25.80
2018-12-07T00:03:13.749Z,27.53
2018-12-07T00:05:44.010Z,26.00
2018-12-07T00:08:14.439Z,24.80
2018-12-07T00:10:44.799Z,23.17
2018-12-07T00:13:15.141Z,22.33
2018-12-07T00:15:45.402Z,23.60
2018-12-07T00:18:15.734Z,23.07
2018-12-07T00:20:46.151Z,21.80
2018-12-07T00:23:16.458Z,21.90
2018-12-07T00:25:46.814Z,21.53
2018-12-07T00:28:17.310Z,21.77
2018-12-07T00:30:47.714Z,23.40
2018-12-07T00:33:18.345Z,21.57
2018-12-07T00:35:48.718Z,20.33
2018-12-07T00:38:19.151Z,20.77
2018-12-07T00:40:49.839Z,21.63
2018-12-07T00:43:20.170Z,22.43
2018-12-07T00:45:50.623Z,21.03
2018-12-07T00:48:21.055Z,20.23
2018-12-07T00:50:51.499Z,22.77
2018-12-07T00:53:21.090Z,21.33
2018-12-07T00:55:51.291Z,21.70
2018-12-07T00:58:21.622Z,22.17
2018-12-07T01:00:51.912Z,22.77
2018-12-07T01:03:22.630Z,21.03
2018-12-07T01:05:53.122Z,18.63
2018-12-07T01:08:23.454Z,19.43
2018-12-07T01:10:53.753Z,19.43
2018-12-07T01:13:24.655Z,18.90
2018-12-07T01:15:55.026Z,16.97
2018-12-07T01:18:25.625Z,17.23
2018-12-07T01:20:56.079Z,17.27
2018-12-07T01:23:26.511Z,18.57
2018-12-07T01:25:56.802Z,17.57
2018-12-07T01:28:27.186Z,18.00
2018-12-07T01:30:57.382Z,19.60
2018-12-07T01:33:27.798Z,19.10
2018-12-07T01:35:58.031Z,18.60
2018-12-07T01:38:28.342Z,19.37
2018-12-07T01:40:58.751Z,19.03
2018-12-07T01:43:29.207Z,18.00
2018-12-07T01:45:59.471Z,16.93
2018-12-07T01:48:29.739Z,15.57
2018-12-07T01:51:00.250Z,16.30
2018-12-07T01:53:30.694Z,16.63
2018-12-07T01:56:01.134Z,16.90
2018-12-07T01:58:31.614Z,15.33
2018-12-07T02:01:01.854Z,16.50
2018-12-07T02:03:32.238Z,15.97
2018-12-07T02:06:02.483Z,15.77
2018-12-07T02:08:32.770Z,15.63
2018-12-07T02:11:03.203Z,16.53
2018-12-07T02:13:33.497Z,17.83
2018-12-07T02:16:03.898Z,21.17
2018-12-07T02:18:34.287Z,22.07
2018-12-07T02:21:04.065Z,22.13
2018-12-07T02:23:34.386Z,22.83
2018-12-07T02:26:04.891Z,24.47
2018-12-07T02:28:35.385Z,26.97
2018-12-07T02:31:05.108Z,24.43
2018-12-07T02:33:35.823Z,27.03
2018-12-07T02:36:06.314Z,26.37
2018-12-07T02:38:36.574Z,26.07
2018-12-07T02:41:06.931Z,23.73
2018-12-07T02:43:37.394Z,22.30
2018-12-07T02:46:07.694Z,20.27
2018-12-07T02:48:37.930Z,19.30
2018-12-07T02:51:08.367Z,17.10
2018-12-07T02:53:38.730Z,19.13
2018-12-07T02:56:09.083Z,17.17
2018-12-07T02:58:39.535Z,21.87
2018-12-07T03:01:09.938Z,20.17
2018-12-07T03:03:40.527Z,20.13
2018-12-07T03:06:10.922Z,20.17
2018-12-07T03:08:41.402Z,18.70
2018-12-07T03:11:11.744Z,18.67
2018-12-07T03:13:42.238Z,19.40
2018-12-07T03:16:12.618Z,19.33
2018-12-07T03:18:43.043Z,18.10
2018-12-07T03:21:13.552Z,16.70
2018-12-07T03:23:44.303Z,14.33
2018-12-07T03:26:14.738Z,13.30
2018-12-07T03:28:45.050Z,14.13
2018-12-07T03:31:15.466Z,14.40
2018-12-07T03:33:46.024Z,17.17
2018-12-07T03:36:16.450Z,18.20
2018-12-07T03:38:46.770Z,18.80
2018-12-07T03:41:17.075Z,17.23
2018-12-07T03:43:47.518Z,17.47
2018-12-07T03:46:17.847Z,17.63
2018-12-07T03:48:48.121Z,18.40
2018-12-07T03:51:18.389Z,17.93
2018-12-07T03:53:48.846Z,14.73
2018-12-07T03:56:18.683Z,19.10
2018-12-07T03:58:49.114Z,17.87
2018-12-07T04:01:19.450Z,19.33
2018-12-07T04:03:49.935Z,20.00
2018-12-07T04:06:19.626Z,15.27
2018-12-07T04:08:49.829Z,18.83
2018-12-07T04:11:20.239Z,17.77
2018-12-07T04:13:50.685Z,16.43
2018-12-07T04:16:21.225Z,16.67
2018-12-07T04:18:51.539Z,18.50
2018-12-07T04:21:21.962Z,19.73
2018-12-07T04:23:52.387Z,31.23
2018-12-07T04:26:22.798Z,18.17
2018-12-07T04:28:53.252Z,10.43
2018-12-07T04:31:23.536Z,8.67
2018-12-07T04:33:53.987Z,8.80
2018-12-07T04:36:24.499Z,9.13
2018-12-07T04:38:54.839Z,10.47
2018-12-07T04:41:25.247Z,8.67
2018-12-07T04:43:55.703Z,8.87
2018-12-07T04:46:26.510Z,9.70
2018-12-07T04:48:57.071Z,8.03
2018-12-07T04:51:27.500Z,7.20
2018-12-07T04:53:57.808Z,7.40
2018-12-07T04:56:28.215Z,7.07
2018-12-07T04:58:58.603Z,6.60
2018-12-07T05:01:28.863Z,6.30
2018-12-07T05:03:59.119Z,7.87
2018-12-07T05:06:29.548Z,14.90
2018-12-07T05:08:59.853Z,17.03
2018-12-07T05:11:30.461Z,15.60
2018-12-07T05:14:00.816Z,16.57
2018-12-07T05:16:31.247Z,15.37
2018-12-07T05:19:01.635Z,14.63
2018-12-07T05:21:31.839Z,14.80
2018-12-07T05:24:02.269Z,13.30
2018-12-07T05:26:32.654Z,14.73
2018-12-07T05:29:03.024Z,13.20
2018-12-07T05:31:33.235Z,13.37
2018-12-07T05:34:03.711Z,13.70
2018-12-07T05:36:34.414Z,14.50
2018-12-07T05:39:05.869Z,14.10
2018-12-07T05:41:36.572Z,15.67
2018-12-07T05:44:06.995Z,18.97
2018-12-07T05:46:37.352Z,32.57
2018-12-07T05:49:07.720Z,44.33
2018-12-07T05:51:38.143Z,43.50
2018-12-07T05:54:08.627Z,67.93
2018-12-07T05:56:39.164Z,44.93
2018-12-07T05:59:09.453Z,42.20
2018-12-07T06:01:39.654Z,38.63
2018-12-07T06:04:09.919Z,46.23
2018-12-07T06:06:40.457Z,45.43
2018-12-07T06:09:10.771Z,31.73
2018-12-07T06:11:41.015Z,32.07
2018-12-07T06:14:11.492Z,35.30
2018-12-07T06:16:41.923Z,28.83
2018-12-07T06:19:12.283Z,21.17
2018-12-07T06:21:43.142Z,22.77
2018-12-07T06:24:13.508Z,18.40
2018-12-07T06:26:43.940Z,21.17
2018-12-07T06:29:14.416Z,16.57
2018-12-07T06:31:44.787Z,13.97
2018-12-07T06:34:15.205Z,12.97
2018-12-07T06:36:45.408Z,16.03
2018-12-07T06:39:15.916Z,13.57
2018-12-07T06:41:46.351Z,12.20
2018-12-07T06:44:17.020Z,13.47
2018-12-07T06:46:47.519Z,13.50
2018-12-07T06:49:17.902Z,21.83
2018-12-07T06:51:48.304Z,10.63
2018-12-07T06:54:18.636Z,11.43
2018-12-07T06:56:49.024Z,8.37
2018-12-07T07:01:37.864Z,8.63
2018-12-07T07:04:08.170Z,8.47
2018-12-07T07:06:38.493Z,8.93
2018-12-07T07:09:09.815Z,8.20
2018-12-07T07:11:40.412Z,7.30
2018-12-07T07:14:11.085Z,7.17
2018-12-07T07:16:41.444Z,6.87
2018-12-07T07:19:11.667Z,7.60
2018-12-07T07:21:42.247Z,9.00
2018-12-07T07:24:12.792Z,8.17
2018-12-07T07:26:43.165Z,7.77
2018-12-07T07:29:13.507Z,8.33
2018-12-07T07:31:43.886Z,9.13
2018-12-07T07:34:14.288Z,8.70
2018-12-07T07:36:44.854Z,7.77
2018-12-07T07:39:15.207Z,9.10
2018-12-07T07:41:45.643Z,8.40
2018-12-07T07:44:16.090Z,7.40
2018-12-07T07:46:46.549Z,7.43
2018-12-07T07:49:16.914Z,8.13
2018-12-07T07:51:47.301Z,7.30
2018-12-07T07:54:17.832Z,8.33
2018-12-07T07:56:48.092Z,8.60
2018-12-07T07:59:18.535Z,9.27
2018-12-07T08:01:49.068Z,9.00
2018-12-07T08:04:19.575Z,11.43
2018-12-07T08:06:49.955Z,11.77
2018-12-07T08:09:20.381Z,16.70
2018-12-07T08:11:50.891Z,21.40
2018-12-07T08:14:20.943Z,58.27
2018-12-07T08:16:51.354Z,50.23
2018-12-07T08:19:21.903Z,31.20
2018-12-07T08:21:52.213Z,30.77
2018-12-07T08:24:22.529Z,29.27
2018-12-07T08:26:53.748Z,28.30
2018-12-07T08:29:24.061Z,26.67
2018-12-07T08:31:54.392Z,29.93
2018-12-07T08:34:24.795Z,29.27
2018-12-07T08:36:55.476Z,35.17
2018-12-07T08:39:25.780Z,33.97
2018-12-07T08:41:56.024Z,34.50
2018-12-07T08:44:26.430Z,30.20
2018-12-07T08:46:57.008Z,25.03
2018-12-07T08:49:59.868Z,51.93
2018-12-07T08:52:30.071Z,48.47
2018-12-07T08:55:00.488Z,39.80
2018-12-07T08:57:31.056Z,27.87
2018-12-07T09:00:01.555Z,29.40
2018-12-07T09:02:31.897Z,27.33
2018-12-07T09:05:02.167Z,33.50
2018-12-07T09:07:32.576Z,39.67
2018-12-07T09:10:02.919Z,36.80
2018-12-07T09:12:33.294Z,42.27
2018-12-07T09:15:03.674Z,40.23
2018-12-07T09:17:34.050Z,40.27
2018-12-07T09:20:05.116Z,44.87
2018-12-07T09:22:35.615Z,37.83
2018-12-07T09:25:06.352Z,35.13
2018-12-07T09:27:39.546Z,36.00
2018-12-07T09:30:10.389Z,38.97
2018-12-07T09:32:40.677Z,62.30
2018-12-07T09:35:10.960Z,45.90
2018-12-07T09:37:41.355Z,46.93
2018-12-07T09:40:11.678Z,38.97
2018-12-07T09:42:41.980Z,37.50
2018-12-07T09:45:12.276Z,36.83
2018-12-07T09:47:42.589Z,31.97
2018-12-07T09:50:12.991Z,25.23
2018-12-07T09:52:43.292Z,14.67
2018-12-07T09:55:13.615Z,14.70
2018-12-07T09:57:44.048Z,10.27
2018-12-07T10:00:14.460Z,10.10
2018-12-07T10:02:44.756Z,8.90
2018-12-07T10:05:15.218Z,8.80
2018-12-07T10:07:45.860Z,7.77
2018-12-07T10:10:16.156Z,7.47
2018-12-07T10:12:46.532Z,7.80
2018-12-07T10:15:16.943Z,7.33
2018-12-07T10:17:47.247Z,7.40
2018-12-07T10:20:17.556Z,7.53
2018-12-07T10:22:47.863Z,6.57
2018-12-07T10:25:18.239Z,6.73
2018-12-07T10:27:48.518Z,7.00
2018-12-07T10:30:18.913Z,8.80
2018-12-07T10:32:49.293Z,7.63
2018-12-07T10:35:19.704Z,6.83
2018-12-07T10:37:49.991Z,6.80
2018-12-07T10:40:20.188Z,7.10
2018-12-07T10:42:50.499Z,6.73
2018-12-07T10:45:20.708Z,6.80
2018-12-07T10:47:50.871Z,6.93
2018-12-07T10:50:21.472Z,6.67
2018-12-07T10:52:51.720Z,6.93
2018-12-07T10:55:22.129Z,7.90
2018-12-07T10:57:52.533Z,6.77
2018-12-07T11:00:28.082Z,6.83
2018-12-07T11:03:03.422Z,6.00
2018-12-07T11:05:38.825Z,6.33
2018-12-07T11:08:14.316Z,5.73
2018-12-07T11:10:49.754Z,5.80
2018-12-07T11:13:25.149Z,6.47
2018-12-07T11:16:00.504Z,6.20
2018-12-07T11:18:35.993Z,6.10
2018-12-07T11:21:11.388Z,5.90
2018-12-07T11:23:46.314Z,6.63
2018-12-07T11:26:20.942Z,5.60
2018-12-07T11:28:56.326Z,6.17
2018-12-07T11:32:33.418Z,6.80
2018-12-07T11:35:08.146Z,6.77
2018-12-07T11:37:38.511Z,6.20
2018-12-07T11:40:09.893Z,6.60
2018-12-07T11:42:40.240Z,6.60
2018-12-07T11:45:10.673Z,6.13
2018-12-07T11:47:40.980Z,6.90
2018-12-07T11:50:11.591Z,5.70
2018-12-07T11:52:41.870Z,6.63
2018-12-07T11:55:12.169Z,6.30
2018-12-07T11:57:42.492Z,6.30
2018-12-07T12:00:12.796Z,6.67
2018-12-07T12:02:43.232Z,10.70
2018-12-07T12:05:13.511Z,16.33
2018-12-07T12:07:43.940Z,12.73
2018-12-07T12:10:14.298Z,9.43
2018-12-07T12:12:44.592Z,8.60
2018-12-07T12:15:14.962Z,8.17
2018-12-07T12:17:45.238Z,8.10
2018-12-07T12:20:15.717Z,7.43
2018-12-07T12:22:46.039Z,6.60
2018-12-07T12:25:16.443Z,5.57
2018-12-07T12:27:46.743Z,6.17
2018-12-07T12:30:17.879Z,5.90
2018-12-07T12:32:47.744Z,5.27
2018-12-07T12:35:18.044Z,5.40
2018-12-07T12:37:48.349Z,5.50
2018-12-07T12:40:18.675Z,6.00
2018-12-07T12:42:49.115Z,5.00
2018-12-07T12:45:19.451Z,5.17
2018-12-07T12:47:49.807Z,4.93
2018-12-07T12:50:25.242Z,4.43
2018-12-07T12:52:55.615Z,4.67
2018-12-07T12:55:25.944Z,5.00
2018-12-07T12:57:56.226Z,4.53
2018-12-07T13:00:26.529Z,4.40
2018-12-07T13:02:56.858Z,4.43
2018-12-07T13:05:27.152Z,4.40
2018-12-07T13:07:57.352Z,4.80
2018-12-07T13:10:27.652Z,4.67
2018-12-07T13:12:58.219Z,5.20
2018-12-07T13:15:28.845Z,4.97
2018-12-07T13:17:59.155Z,4.73
2018-12-07T13:20:29.808Z,4.60
2018-12-07T13:23:00.085Z,4.67
2018-12-07T13:25:30.428Z,4.30
2018-12-07T13:28:00.755Z,4.40
2018-12-07T13:30:31.012Z,4.60
2018-12-07T13:33:01.347Z,4.90
2018-12-07T13:35:31.740Z,4.73
2018-12-07T13:38:02.024Z,4.37
2018-12-07T13:40:32.329Z,4.63
2018-12-07T13:43:02.553Z,4.30
2018-12-07T13:45:33.249Z,4.30
2018-12-07T13:48:03.662Z,5.03
2018-12-07T13:50:42.864Z,4.50
2018-12-07T13:53:13.164Z,4.83
2018-12-07T13:55:42.937Z,4.23
2018-12-07T13:58:13.144Z,4.60
2018-12-07T14:00:43.509Z,4.80
2018-12-07T14:03:13.942Z,6.20
2018-12-07T14:05:44.162Z,4.70
2018-12-07T14:08:14.595Z,3.97
2018-12-07T14:10:44.891Z,5.67
2018-12-07T14:13:15.213Z,5.70
2018-12-07T14:15:45.843Z,5.63
2018-12-07T14:18:16.101Z,6.07
2018-12-07T14:20:46.390Z,7.77
2018-12-07T14:23:16.391Z,9.67
2018-12-07T14:25:46.514Z,11.27
2018-12-07T14:28:16.825Z,11.43
2018-12-07T14:30:47.294Z,11.53
2018-12-07T14:33:17.525Z,10.33
2018-12-07T14:35:47.946Z,10.50
2018-12-07T14:38:18.244Z,11.87
2018-12-07T14:40:48.666Z,18.67
2018-12-07T14:43:19.079Z,22.87
2018-12-07T14:45:49.503Z,21.60
2018-12-07T14:48:19.985Z,27.23
2018-12-07T14:50:50.415Z,33.77
2018-12-07T14:53:20.844Z,63.23
2018-12-07T14:55:51.163Z,37.23
2018-12-07T14:58:21.470Z,24.27
2018-12-07T15:00:51.812Z,21.13
2018-12-07T15:03:22.305Z,17.40
2018-12-07T15:05:52.650Z,17.80
2018-12-07T15:08:22.803Z,20.97
2018-12-07T15:10:53.412Z,24.83
2018-12-07T15:13:23.532Z,33.23
2018-12-07T15:15:53.879Z,35.87
2018-12-07T15:18:24.403Z,44.53
2018-12-07T15:20:54.581Z,36.87
2018-12-07T15:23:25.037Z,32.20
2018-12-07T15:25:56.192Z,25.73
2018-12-07T15:28:25.721Z,25.70
2018-12-07T15:30:55.968Z,26.70
2018-12-07T15:33:26.339Z,31.30
2018-12-07T15:35:56.757Z,29.87
2018-12-07T15:38:27.198Z,33.70
2018-12-07T15:40:57.922Z,23.67
2018-12-07T15:43:28.058Z,18.47
2018-12-07T15:45:58.469Z,13.30
2018-12-07T15:48:29.031Z,12.20
2018-12-07T15:50:59.401Z,13.00
2018-12-07T15:53:29.744Z,25.80
2018-12-07T15:55:59.977Z,18.50
2018-12-07T15:58:30.488Z,13.47
2018-12-07T16:01:00.916Z,13.80
2018-12-07T16:03:31.209Z,11.77
2018-12-07T16:06:01.888Z,13.10
2018-12-07T16:08:32.154Z,12.27
2018-12-07T16:11:02.737Z,11.37
2018-12-07T16:13:32.995Z,11.73
2018-12-07T16:16:03.628Z,11.47
2018-12-07T16:18:33.887Z,13.57
2018-12-07T16:21:04.469Z,21.57
2018-12-07T16:23:34.725Z,22.40
2018-12-07T16:26:05.145Z,40.80
2018-12-07T16:28:34.946Z,41.87
2018-12-07T16:31:05.453Z,40.07
2018-12-07T16:33:35.745Z,38.63
2018-12-07T16:36:06.238Z,40.10
2018-12-07T16:38:36.558Z,41.90
2018-12-07T16:41:07.218Z,43.87
2018-12-07T16:43:37.845Z,42.73
2018-12-07T16:46:08.291Z,48.87
2018-12-07T16:48:38.605Z,37.13
2018-12-07T16:51:09.150Z,37.53
2018-12-07T16:53:39.559Z,31.23
2018-12-07T16:56:09.822Z,28.37
2018-12-07T16:58:40.362Z,24.80
2018-12-07T17:01:10.615Z,22.10
2018-12-07T17:03:41.131Z,21.57
2018-12-07T17:06:11.311Z,19.63
2018-12-07T17:08:41.555Z,25.43
2018-12-07T17:11:12.227Z,36.43
2018-12-07T17:13:41.943Z,33.97
2018-12-07T17:16:12.252Z,29.50
2018-12-07T17:18:42.459Z,33.60
2018-12-07T17:21:12.893Z,40.40
2018-12-07T17:23:43.216Z,38.27
2018-12-07T17:26:13.808Z,36.93
2018-12-07T17:28:44.042Z,34.57
2018-12-07T17:31:14.426Z,40.87
2018-12-07T17:33:44.883Z,47.20
2018-12-07T17:36:15.319Z,49.80
2018-12-07T17:38:45.844Z,38.30
2018-12-07T17:41:16.164Z,31.03
2018-12-07T17:43:47.209Z,29.63
2018-12-07T17:46:17.662Z,31.67
2018-12-07T17:48:48.011Z,33.10
2018-12-07T17:51:18.318Z,35.13
2018-12-07T17:53:48.067Z,29.40
2018-12-07T17:56:18.296Z,35.60
2018-12-07T17:58:48.646Z,34.67
2018-12-07T18:01:18.920Z,26.60
2018-12-07T18:03:49.311Z,30.63
2018-12-07T18:06:19.654Z,29.07
2018-12-07T18:08:50.175Z,21.70
2018-12-07T18:11:20.853Z,22.13
2018-12-07T18:13:51.083Z,17.20
2018-12-07T18:16:21.441Z,16.40
2018-12-07T18:18:52.174Z,15.17
2018-12-07T18:21:22.420Z,14.07
2018-12-07T18:23:52.875Z,14.23
2018-12-07T18:26:23.036Z,13.17
2018-12-07T18:28:53.587Z,13.83
2018-12-07T18:31:24.247Z,12.60
2018-12-07T18:33:54.584Z,12.27
2018-12-07T18:36:25.062Z,12.90
2018-12-07T18:38:55.609Z,12.30
2018-12-07T18:41:25.962Z,12.07
2018-12-07T18:43:56.421Z,11.57
2018-12-07T18:46:26.712Z,18.13
2018-12-07T18:48:57.109Z,13.93
2018-12-07T18:51:27.592Z,11.27
2018-12-07T18:53:58.261Z,11.80
2018-12-07T18:56:28.634Z,10.77
2018-12-07T18:58:59.209Z,11.10
2018-12-07T19:01:29.522Z,12.10
2018-12-07T19:04:00.015Z,13.77
2018-12-07T19:06:30.335Z,17.20
2018-12-07T19:09:00.969Z,17.00
2018-12-07T19:11:31.145Z,12.93
2018-12-07T19:14:01.543Z,10.93
2018-12-07T19:16:32.055Z,11.87
2018-12-07T19:19:02.835Z,20.87
2018-12-07T19:21:32.855Z,14.27
2018-12-07T19:24:02.839Z,11.90
2018-12-07T19:26:33.141Z,11.37
2018-12-07T19:29:03.411Z,11.93
2018-12-07T19:31:33.288Z,11.73
2018-12-07T19:34:03.548Z,11.50
2018-12-07T19:36:33.930Z,10.87
2018-12-07T19:39:05.655Z,10.83
2018-12-07T19:41:36.281Z,14.27
2018-12-07T19:44:06.897Z,12.47
2018-12-07T19:46:37.426Z,17.00
2018-12-07T19:49:08.072Z,13.23
2018-12-07T19:51:37.928Z,12.07
2018-12-07T19:54:08.665Z,10.83
2018-12-07T19:56:38.929Z,9.70
2018-12-07T19:59:09.606Z,10.57
2018-12-07T20:01:40.182Z,11.70
2018-12-07T20:04:10.570Z,12.07
2018-12-07T20:06:41.410Z,11.87
2018-12-07T20:09:11.162Z,11.73
2018-12-07T20:11:41.941Z,14.97
2018-12-07T20:14:11.715Z,13.00
2018-12-07T20:16:41.812Z,14.80
2018-12-07T20:19:13.068Z,13.53
2018-12-07T20:21:43.328Z,12.33
2018-12-07T20:24:14.257Z,12.50
2018-12-07T20:26:44.701Z,11.70
2018-12-07T20:29:15.307Z,12.77
2018-12-07T20:31:46.303Z,13.57
2018-12-07T20:34:16.605Z,11.10
2018-12-07T20:36:47.105Z,12.53
2018-12-07T20:39:17.524Z,11.20
2018-12-07T20:41:48.941Z,12.33
2018-12-07T20:44:18.552Z,12.93
2018-12-07T20:46:48.889Z,12.17
2018-12-07T20:49:19.543Z,13.00
2018-12-07T20:51:50.016Z,12.37
2018-12-07T20:54:21.221Z,11.70
2018-12-07T20:56:51.494Z,12.70
2018-12-07T20:59:21.871Z,12.03
2018-12-07T21:01:52.104Z,13.77
2018-12-07T21:04:45.960Z,14.73
2018-12-07T21:07:57.375Z,12.00
2018-12-07T21:11:40.626Z,15.17
2018-12-07T21:14:46.810Z,14.20
2018-12-07T21:17:37.590Z,16.70
2018-12-07T21:20:16.752Z,17.47
2018-12-07T21:22:47.453Z,16.70
2018-12-07T21:25:18.052Z,16.30
2018-12-07T21:27:48.290Z,14.50
2018-12-07T21:40:24.971Z,14.43
2018-12-07T21:42:55.358Z,13.43
2018-12-07T21:45:25.972Z,11.97
2018-12-07T21:48:24.374Z,12.17
2018-12-07T21:51:04.405Z,11.97
2018-12-07T21:53:35.042Z,11.40
2018-12-07T21:56:05.696Z,11.40
2018-12-07T21:58:36.410Z,12.23
2018-12-07T22:01:06.926Z,11.33
2018-12-07T22:03:36.986Z,11.20
2018-12-07T22:06:07.696Z,11.17
2018-12-07T22:08:38.066Z,11.67
2018-12-07T22:11:08.530Z,12.37
2018-12-07T22:13:38.921Z,13.07
2018-12-07T22:16:08.634Z,13.30
2018-12-07T22:18:38.822Z,16.53
2018-12-07T22:21:09.244Z,16.97
2018-12-07T22:23:39.581Z,14.37
2018-12-07T22:26:10.163Z,12.80
2018-12-07T22:28:40.809Z,13.50
2018-12-07T22:31:11.106Z,13.67
2018-12-07T22:33:42.247Z,12.63
2018-12-07T22:36:12.782Z,12.47
2018-12-07T22:38:43.392Z,12.33
2018-12-07T22:41:13.898Z,13.13
2018-12-07T22:43:44.566Z,15.17
2018-12-07T22:46:14.904Z,13.53
2018-12-07T22:48:45.786Z,12.50
2018-12-07T22:51:16.437Z,11.40
2018-12-07T22:53:46.255Z,11.97
2018-12-07T22:56:16.712Z,12.03
2018-12-07T22:58:46.948Z,11.23
2018-12-07T23:01:17.481Z,11.40
2018-12-07T23:03:47.997Z,10.57
2018-12-07T23:06:18.432Z,10.80
2018-12-07T23:08:48.988Z,10.43
2018-12-07T23:11:19.292Z,10.40
2018-12-07T23:13:49.973Z,10.40
2018-12-07T23:16:20.661Z,11.17
2018-12-07T23:18:51.503Z,11.67
2018-12-07T23:21:21.952Z,10.63
2018-12-07T23:23:52.424Z,11.70
2018-12-07T23:26:23.312Z,13.30
2018-12-07T23:28:53.644Z,13.67
2018-12-07T23:31:24.002Z,14.10
2018-12-07T23:33:54.384Z,21.20
2018-12-07T23:36:24.699Z,16.37
2018-12-07T23:38:54.995Z,13.87
2018-12-07T23:41:25.288Z,14.67
2018-12-07T23:43:55.579Z,14.90
2018-12-07T23:46:26.076Z,16.47
2018-12-07T23:48:56.494Z,15.27
2018-12-07T23:51:26.877Z,13.00
2018-12-07T23:53:57.290Z,12.53
2018-12-07T23:56:27.581Z,12.53
2018-12-07T23:58:57.894Z,12.13
